createdAt,value
2018-12-04T00:00:50.090Z,974.263
2018-12-04T00:02:50.063Z,974.337
2018-12-04T00:04:50.377Z,974.359
2018-12-04T00:06:50.521Z,974.396
2018-12-04T00:08:50.494Z,974.387
2018-12-04T00:10:50.560Z,974.367
2018-12-04T00:12:50.534Z,974.350
2018-12-04T00:14:50.574Z,974.350
2018-12-04T00:16:49.775Z,974.338
2018-12-04T00:18:49.828Z,974.373
2018-12-04T00:20:49.791Z,974.380
2018-12-04T00:22:49.784Z,974.437
2018-12-04T00:24:49.795Z,974.452
2018-12-04T00:26:49.941Z,974.442
2018-12-04T00:28:50.038Z,974.451
2018-12-04T00:30:50.052Z,974.479
2018-12-04T00:32:50.053Z,974.506
2018-12-04T00:34:50.243Z,974.499
2018-12-04T00:36:50.424Z,974.458
2018-12-04T00:38:50.379Z,974.452
2018-12-04T00:40:50.451Z,974.464
2018-12-04T00:42:50.418Z,974.478
2018-12-04T00:44:50.391Z,974.460
2018-12-04T00:46:49.624Z,974.459
2018-12-04T00:48:49.610Z,974.473
2018-12-04T00:50:50.597Z,974.487
2018-12-04T00:52:49.647Z,974.496
2018-12-04T00:54:49.638Z,974.472
2018-12-04T00:56:49.838Z,974.549
2018-12-04T00:58:49.864Z,974.585
2018-12-04T01:00:49.852Z,974.613
2018-12-04T01:02:49.831Z,974.658
2018-12-04T01:04:50.203Z,974.689
2018-12-04T01:06:50.363Z,974.699
2018-12-04T01:08:50.363Z,974.724
2018-12-04T01:10:50.353Z,974.777
2018-12-04T01:12:50.448Z,974.799
2018-12-04T01:14:50.439Z,974.804
2018-12-04T01:16:49.710Z,974.847
2018-12-04T01:18:49.736Z,974.867
2018-12-04T01:20:49.741Z,974.935
2018-12-04T01:22:49.781Z,974.982
2018-12-04T01:24:49.789Z,975.051
2018-12-04T01:26:50.171Z,975.084
2018-12-04T01:28:50.140Z,975.082
2018-12-04T01:30:50.109Z,975.148
2018-12-04T01:32:50.149Z,975.144
2018-12-04T01:34:50.405Z,975.171
2018-12-04T01:36:50.472Z,975.205
2018-12-04T01:38:50.473Z,975.141
2018-12-04T01:40:50.419Z,975.209
2018-12-04T01:42:50.516Z,975.240
2018-12-04T01:44:50.403Z,975.252
2018-12-04T01:46:49.649Z,975.291
2018-12-04T01:48:49.746Z,975.275
2018-12-04T01:50:49.708Z,975.292
2018-12-04T01:52:49.700Z,975.283
2018-12-04T01:54:49.767Z,975.289
2018-12-04T01:56:50.044Z,975.316
2018-12-04T01:58:49.994Z,975.355
2018-12-04T02:00:50.006Z,975.395
2018-12-04T02:02:50.011Z,975.404
2018-12-04T02:04:50.389Z,975.407
2018-12-04T02:06:50.571Z,975.415
2018-12-04T02:08:50.610Z,975.415
2018-12-04T02:10:50.606Z,975.460
2018-12-04T02:12:50.592Z,975.465
2018-12-04T02:14:49.672Z,975.467
2018-12-04T02:16:49.913Z,975.467
2018-12-04T02:18:49.897Z,975.497
2018-12-04T02:20:50.018Z,975.496
2018-12-04T02:22:50.048Z,975.496
2018-12-04T02:24:50.125Z,975.492
2018-12-04T02:26:50.469Z,975.469
2018-12-04T02:28:50.554Z,975.519
2018-12-04T02:30:49.649Z,975.520
2018-12-04T02:32:49.698Z,975.520
2018-12-04T02:34:50.260Z,975.553
2018-12-04T02:36:50.500Z,975.552
2018-12-04T02:38:50.401Z,975.555
2018-12-04T02:40:50.489Z,975.555
2018-12-04T02:42:50.467Z,975.587
2018-12-04T02:44:50.458Z,975.618
2018-12-04T02:46:49.649Z,975.631
2018-12-04T02:48:49.657Z,975.663
2018-12-04T02:50:49.618Z,975.672
2018-12-04T02:52:50.579Z,975.686
2018-12-04T02:54:50.521Z,975.673
2018-12-04T02:56:49.742Z,975.689
2018-12-04T02:58:49.692Z,975.686
2018-12-04T03:00:49.748Z,975.711
2018-12-04T03:02:49.870Z,975.719
2018-12-04T03:04:50.410Z,975.707
2018-12-04T03:06:49.657Z,975.747
2018-12-04T03:08:49.837Z,975.785
2018-12-04T03:10:49.777Z,975.770
2018-12-04T03:12:49.884Z,975.787
2018-12-04T03:14:49.869Z,975.787
2018-12-04T03:16:50.015Z,975.823
2018-12-04T03:18:50.043Z,975.845
2018-12-04T03:20:50.053Z,975.917
2018-12-04T03:22:50.091Z,975.910
2018-12-04T03:24:50.110Z,975.886
2018-12-04T03:26:50.264Z,975.918
2018-12-04T03:28:50.243Z,975.931
2018-12-04T03:30:50.264Z,975.939
2018-12-04T03:32:50.406Z,975.922
2018-12-04T03:34:49.732Z,975.970
2018-12-04T03:36:50.150Z,976.025
2018-12-04T03:38:50.042Z,976.018
2018-12-04T03:40:49.985Z,976.027
2018-12-04T03:42:49.998Z,976.053
2018-12-04T03:44:49.945Z,976.068
2018-12-04T03:46:50.097Z,976.116
2018-12-04T03:48:50.118Z,976.170
2018-12-04T03:50:50.112Z,976.206
2018-12-04T03:52:50.117Z,976.260
2018-12-04T03:54:50.135Z,976.305
2018-12-04T03:56:50.358Z,976.296
2018-12-04T03:58:50.414Z,976.318
2018-12-04T04:00:50.319Z,976.294
2018-12-04T04:02:50.348Z,976.334
2018-12-04T04:04:49.742Z,976.334
2018-12-04T04:06:49.924Z,976.418
2018-12-04T04:08:49.882Z,976.414
2018-12-04T04:10:49.947Z,976.455
2018-12-04T04:12:49.928Z,976.512
2018-12-04T04:14:49.909Z,976.520
2018-12-04T04:16:50.131Z,976.568
2018-12-04T04:18:50.085Z,976.601
2018-12-04T04:20:50.067Z,976.597
2018-12-04T04:22:50.113Z,976.611
2018-12-04T04:24:50.132Z,976.609
2018-12-04T04:26:50.397Z,976.625
2018-12-04T04:28:50.389Z,976.660
2018-12-04T04:30:50.379Z,976.749
2018-12-04T04:32:50.331Z,976.749
2018-12-04T04:34:49.805Z,976.806
2018-12-04T04:36:49.928Z,976.873
2018-12-04T04:38:49.944Z,976.915
2018-12-04T04:40:49.949Z,976.927
2018-12-04T04:42:49.971Z,976.945
2018-12-04T04:44:49.952Z,976.953
2018-12-04T04:46:50.127Z,976.958
2018-12-04T04:48:50.161Z,977.017
2018-12-04T04:50:50.155Z,977.050
2018-12-04T04:52:50.212Z,977.075
2018-12-04T04:54:50.244Z,977.075
2018-12-04T04:56:50.458Z,977.129
2018-12-04T04:58:50.445Z,977.199
2018-12-04T05:00:50.479Z,977.245
2018-12-04T05:02:50.477Z,977.264
2018-12-04T05:04:49.818Z,977.284
2018-12-04T05:06:49.923Z,977.290
2018-12-04T05:08:49.932Z,977.321
2018-12-04T05:10:49.940Z,977.335
2018-12-04T05:12:49.891Z,977.352
2018-12-04T05:14:49.884Z,977.397
2018-12-04T05:16:50.090Z,977.414
2018-12-04T05:18:50.081Z,977.439
2018-12-04T05:20:50.118Z,977.495
2018-12-04T05:22:50.169Z,977.510
2018-12-04T05:24:50.207Z,977.540
2018-12-04T05:26:49.889Z,977.566
2018-12-04T05:28:49.909Z,977.639
2018-12-04T05:30:49.899Z,977.664
2018-12-04T05:32:49.937Z,977.740
2018-12-04T05:34:50.343Z,977.778
2018-12-04T05:36:50.495Z,977.850
2018-12-04T05:38:50.615Z,977.878
2018-12-04T05:40:49.636Z,977.942
2018-12-04T05:42:49.790Z,978.004
2018-12-04T05:44:49.704Z,978.014
2018-12-04T05:46:49.940Z,978.051
2018-12-04T05:48:49.912Z,978.072
2018-12-04T05:50:49.859Z,978.124
2018-12-04T05:52:49.842Z,978.140
2018-12-04T05:54:49.877Z,978.200
2018-12-04T05:56:50.078Z,978.256
2018-12-04T05:58:50.086Z,978.267
2018-12-04T06:00:50.139Z,978.276
2018-12-04T06:02:50.133Z,978.291
2018-12-04T06:04:50.402Z,978.354
2018-12-04T06:06:49.702Z,978.373
2018-12-04T06:08:49.676Z,978.411
2018-12-04T06:10:49.657Z,978.438
2018-12-04T06:12:49.675Z,978.484
2018-12-04T06:14:49.669Z,978.484
2018-12-04T06:16:49.855Z,978.513
2018-12-04T06:18:49.844Z,978.615
2018-12-04T06:20:49.849Z,978.635
2018-12-04T06:22:49.804Z,978.643
2018-12-04T06:24:49.862Z,978.662
2018-12-04T06:26:50.003Z,978.701
2018-12-04T06:28:49.994Z,978.733
2018-12-04T06:30:49.934Z,978.793
2018-12-04T06:32:49.955Z,978.839
2018-12-04T06:34:50.196Z,978.882
2018-12-04T06:36:49.948Z,978.926
2018-12-04T06:38:49.902Z,978.939
2018-12-04T06:40:49.832Z,978.996
2018-12-04T06:42:49.802Z,978.996
2018-12-04T06:44:49.861Z,979.094
2018-12-04T06:46:49.994Z,979.122
2018-12-04T06:48:49.995Z,979.176
2018-12-04T06:50:49.982Z,979.220
2018-12-04T06:52:49.981Z,979.313
2018-12-04T06:54:49.975Z,979.379
2018-12-04T06:56:50.287Z,979.463
2018-12-04T06:58:50.291Z,979.547
2018-12-04T07:00:50.204Z,979.579
2018-12-04T07:02:50.157Z,979.657
2018-12-04T07:04:50.561Z,979.714
2018-12-04T07:06:49.753Z,979.762
2018-12-04T07:08:49.734Z,979.827
2018-12-04T07:10:49.886Z,979.844
2018-12-04T07:12:50.386Z,979.912
2018-12-04T07:14:50.364Z,979.917
2018-12-04T07:16:49.656Z,979.941
2018-12-04T07:18:49.636Z,979.941
2018-12-04T07:20:49.634Z,979.944
2018-12-04T07:22:50.659Z,979.974
2018-12-04T07:24:49.764Z,980.016
2018-12-04T07:26:49.968Z,980.101
2018-12-04T07:28:49.882Z,980.145
2018-12-04T07:30:49.839Z,980.239
2018-12-04T07:32:49.870Z,980.348
2018-12-04T07:34:50.289Z,980.364
2018-12-04T07:36:50.573Z,980.425
2018-12-04T07:38:50.576Z,980.463
2018-12-04T07:40:49.660Z,980.572
2018-12-04T07:42:49.669Z,980.620
2018-12-04T07:44:49.770Z,980.707
2018-12-04T07:46:50.097Z,980.798
2018-12-04T07:48:50.046Z,980.834
2018-12-04T07:50:50.017Z,980.882
2018-12-04T07:52:49.997Z,980.943
2018-12-04T07:54:50.012Z,981.022
2018-12-04T07:56:50.124Z,981.070
2018-12-04T07:58:50.185Z,981.084
2018-12-04T08:00:50.204Z,981.132
2018-12-04T08:02:50.339Z,981.175
2018-12-04T08:04:50.478Z,981.215
2018-12-04T08:06:49.731Z,981.262
2018-12-04T08:08:49.843Z,981.304
2018-12-04T08:10:49.774Z,981.396
2018-12-04T08:12:49.783Z,981.466
2018-12-04T08:14:49.820Z,981.504
2018-12-04T08:16:49.981Z,981.612
2018-12-04T08:18:49.986Z,981.626
2018-12-04T08:20:50.017Z,981.668
2018-12-04T08:22:50.042Z,981.716
2018-12-04T08:24:49.991Z,981.737
2018-12-04T08:26:50.094Z,981.781
2018-12-04T08:28:50.074Z,981.809
2018-12-04T08:30:50.123Z,981.809
2018-12-04T08:32:50.099Z,981.890
2018-12-04T08:34:50.363Z,982.001
2018-12-04T08:36:50.532Z,982.057
2018-12-04T08:38:50.536Z,982.173
2018-12-04T08:40:50.579Z,982.283
2018-12-04T08:42:49.704Z,982.319
2018-12-04T08:44:49.628Z,982.413
2018-12-04T08:46:49.889Z,982.423
2018-12-04T08:48:49.847Z,982.460
2018-12-04T08:50:49.864Z,982.501
2018-12-04T08:52:49.992Z,982.562
2018-12-04T08:54:49.985Z,982.586
2018-12-04T08:56:50.228Z,982.636
2018-12-04T08:58:50.251Z,982.667
2018-12-04T09:00:50.261Z,982.715
2018-12-04T09:02:50.257Z,982.723
2018-12-04T09:04:49.731Z,982.764
2018-12-04T09:06:50.165Z,982.840
2018-12-04T09:08:50.486Z,982.852
2018-12-04T09:10:49.635Z,982.883
2018-12-04T09:12:49.799Z,982.899
2018-12-04T09:14:49.763Z,982.947
2018-12-04T09:16:50.021Z,982.976
2018-12-04T09:18:50.149Z,983.068
2018-12-04T09:20:50.238Z,983.099
2018-12-04T09:22:50.390Z,983.133
2018-12-04T09:24:49.710Z,983.227
2018-12-04T09:26:49.943Z,983.300
2018-12-04T09:28:50.093Z,983.385
2018-12-04T09:30:50.257Z,983.411
2018-12-04T09:32:50.233Z,983.471
2018-12-04T09:34:50.428Z,983.532
2018-12-04T09:36:49.615Z,983.563
2018-12-04T09:38:50.543Z,983.630
2018-12-04T09:40:50.526Z,983.644
2018-12-04T09:42:50.517Z,983.688
2018-12-04T09:44:50.433Z,983.722
2018-12-04T09:46:49.676Z,983.740
2018-12-04T09:48:49.668Z,983.740
2018-12-04T09:50:49.639Z,983.771
2018-12-04T09:52:49.681Z,983.770
2018-12-04T09:54:49.718Z,983.771
2018-12-04T09:56:50.025Z,983.765
2018-12-04T09:58:50.058Z,983.764
2018-12-04T10:00:49.992Z,983.775
2018-12-04T10:02:49.949Z,983.789
2018-12-04T10:04:50.152Z,983.796
2018-12-04T10:06:50.414Z,983.850
2018-12-04T10:08:50.392Z,983.869
2018-12-04T10:10:50.371Z,983.920
2018-12-04T10:12:50.551Z,983.920
2018-12-04T10:14:50.567Z,983.951
2018-12-04T10:16:49.861Z,983.967
2018-12-04T10:18:49.845Z,983.965
2018-12-04T10:20:49.833Z,983.984
2018-12-04T10:22:49.883Z,983.980
2018-12-04T10:24:49.878Z,984.006
2018-12-04T10:26:49.974Z,984.040
2018-12-04T10:28:49.976Z,984.085
2018-12-04T10:30:49.972Z,984.142
2018-12-04T10:32:50.086Z,984.205
2018-12-04T10:34:50.280Z,984.243
2018-12-04T10:36:50.464Z,984.273
2018-12-04T10:38:50.401Z,984.289
2018-12-04T10:40:50.392Z,984.328
2018-12-04T10:42:50.263Z,984.325
2018-12-04T10:44:50.221Z,984.325
2018-12-04T10:46:50.389Z,984.330
2018-12-04T10:48:50.376Z,984.336
2018-12-04T10:50:50.349Z,984.381
2018-12-04T10:52:50.467Z,984.370
2018-12-04T10:54:50.469Z,984.420
2018-12-04T10:56:49.639Z,984.437
2018-12-04T10:58:49.808Z,984.499
2018-12-04T11:00:49.794Z,984.509
2018-12-04T11:02:50.187Z,984.563
2018-12-04T11:04:50.545Z,984.589
2018-12-04T11:06:49.830Z,984.606
2018-12-04T11:08:49.903Z,984.639
2018-12-04T11:10:49.923Z,984.680
2018-12-04T11:12:49.957Z,984.735
2018-12-04T11:14:49.952Z,984.764
2018-12-04T11:16:50.229Z,984.770
2018-12-04T11:18:50.276Z,984.781
2018-12-04T11:20:50.277Z,984.788
2018-12-04T11:22:50.324Z,984.795
2018-12-04T11:24:50.292Z,984.804
2018-12-04T11:26:50.447Z,984.826
2018-12-04T11:28:50.452Z,984.859
2018-12-04T11:30:50.387Z,984.851
2018-12-04T11:32:50.483Z,984.859
2018-12-04T11:34:49.904Z,984.884
2018-12-04T11:36:50.050Z,984.919
2018-12-04T11:38:50.043Z,984.943
2018-12-04T11:40:50.154Z,984.990
2018-12-04T11:42:50.222Z,985.041
2018-12-04T11:44:50.334Z,985.059
2018-12-04T11:46:49.629Z,985.049
2018-12-04T11:48:50.532Z,985.054
2018-12-04T11:50:50.550Z,985.070
2018-12-04T11:52:50.547Z,985.077
2018-12-04T11:54:50.496Z,985.125
2018-12-04T11:56:49.659Z,985.174
2018-12-04T11:58:50.566Z,985.196
2018-12-04T12:00:50.631Z,985.223
2018-12-04T12:02:49.585Z,985.267
2018-12-04T12:04:49.838Z,985.317
2018-12-04T12:06:50.029Z,985.360
2018-12-04T12:08:49.983Z,985.415
2018-12-04T12:10:49.998Z,985.516
2018-12-04T12:12:50.027Z,985.529
2018-12-04T12:14:50.044Z,985.495
2018-12-04T12:16:50.334Z,985.483
2018-12-04T12:18:50.500Z,985.482
2018-12-04T12:20:49.633Z,985.488
2018-12-04T12:22:49.791Z,985.501
2018-12-04T12:24:49.961Z,985.528
2018-12-04T12:26:50.337Z,985.565
2018-12-04T12:28:50.571Z,985.583
2018-12-04T12:30:49.735Z,985.598
2018-12-04T12:32:49.813Z,985.578
2018-12-04T12:34:50.257Z,985.608
2018-12-04T12:36:49.609Z,985.635
2018-12-04T12:38:49.793Z,985.690
2018-12-04T12:40:49.820Z,985.751
2018-12-04T12:42:49.766Z,985.785
2018-12-04T12:44:49.789Z,985.793
2018-12-04T12:46:49.987Z,985.829
2018-12-04T12:48:49.969Z,985.882
2018-12-04T12:50:49.936Z,985.897
2018-12-04T12:52:49.938Z,985.945
2018-12-04T12:54:49.932Z,985.972
2018-12-04T12:56:50.182Z,986.039
2018-12-04T12:58:50.574Z,986.090
2018-12-04T13:00:50.587Z,986.158
2018-12-04T13:02:50.526Z,986.237
2018-12-04T13:04:49.784Z,986.272
2018-12-04T13:06:49.975Z,986.330
2018-12-04T13:08:49.938Z,986.352
2018-12-04T13:10:49.900Z,986.375
2018-12-04T13:12:49.932Z,986.373
2018-12-04T13:14:49.924Z,986.371
2018-12-04T13:16:50.015Z,986.396
2018-12-04T13:18:50.008Z,986.396
2018-12-04T13:20:50.245Z,986.423
2018-12-04T13:22:50.481Z,986.417
2018-12-04T13:24:50.409Z,986.395
2018-12-04T13:26:50.606Z,986.447
2018-12-04T13:28:50.501Z,986.476
2018-12-04T13:30:50.574Z,986.528
2018-12-04T13:32:50.056Z,986.546
2018-12-04T13:34:50.340Z,986.563
2018-12-04T13:36:50.568Z,986.607
2018-12-04T13:38:49.684Z,986.627
2018-12-04T13:40:49.729Z,986.722
2018-12-04T13:42:49.721Z,986.769
2018-12-04T13:44:49.755Z,986.811
2018-12-04T13:46:50.004Z,986.824
2018-12-04T13:48:49.999Z,986.824
2018-12-04T13:50:50.041Z,986.867
2018-12-04T13:52:50.074Z,986.909
2018-12-04T13:54:50.188Z,986.928
2018-12-04T13:56:50.334Z,986.998
2018-12-04T13:58:50.325Z,987.020
2018-12-04T14:00:50.386Z,987.095
2018-12-04T14:02:50.476Z,987.137
2018-12-04T14:04:49.913Z,987.137
2018-12-04T14:06:50.132Z,987.202
2018-12-04T14:08:50.164Z,987.221
2018-12-04T14:10:50.224Z,987.274
2018-12-04T14:12:50.323Z,987.287
2018-12-04T14:14:50.455Z,987.315
2018-12-04T14:16:50.550Z,987.352
2018-12-04T14:18:50.665Z,987.353
2018-12-04T14:20:49.778Z,987.381
2018-12-04T14:22:49.803Z,987.416
2018-12-04T14:24:49.792Z,987.470
2018-12-04T14:26:49.982Z,987.521
2018-12-04T14:28:49.977Z,987.564
2018-12-04T14:30:50.075Z,987.643
2018-12-04T14:32:50.125Z,987.643
2018-12-04T14:34:50.541Z,987.706
2018-12-04T14:36:49.718Z,987.706
2018-12-04T14:38:49.725Z,987.769
2018-12-04T14:40:49.765Z,987.822
2018-12-04T14:42:49.845Z,987.836
2018-12-04T14:44:49.909Z,987.852
2018-12-04T14:46:50.299Z,987.866
2018-12-04T14:48:50.480Z,987.932
2018-12-04T14:50:50.415Z,987.963
2018-12-04T14:52:50.500Z,988.026
2018-12-04T14:54:50.517Z,988.051
2018-12-04T14:56:49.824Z,988.076
2018-12-04T14:58:51.117Z,988.084
2018-12-04T15:00:50.271Z,988.133
2018-12-04T15:02:50.300Z,988.160
2018-12-04T15:04:49.769Z,988.217
2018-12-04T15:06:50.005Z,988.239
2018-12-04T15:08:50.269Z,988.314
2018-12-04T15:10:50.277Z,988.366
2018-12-04T15:12:50.386Z,988.378
2018-12-04T15:14:50.492Z,988.424
2018-12-04T15:16:55.506Z,988.448
2018-12-04T15:18:50.562Z,988.471
2018-12-04T15:20:49.658Z,988.509
2018-12-04T15:22:49.784Z,988.535
2018-12-04T15:24:49.829Z,988.583
2018-12-04T15:26:50.182Z,988.620
2018-12-04T15:28:50.225Z,988.660
2018-12-04T15:30:50.285Z,988.687
2018-12-04T15:32:50.344Z,988.745
2018-12-04T15:34:49.844Z,988.768
2018-12-04T15:36:56.978Z,988.803
2018-12-04T15:38:50.023Z,988.837
2018-12-04T15:40:50.085Z,988.835
2018-12-04T15:42:50.145Z,988.846
2018-12-04T15:44:50.162Z,988.886
2018-12-04T15:46:50.468Z,988.943
2018-12-04T15:48:50.572Z,988.993
2018-12-04T15:50:50.607Z,989.016
2018-12-04T15:52:50.652Z,989.030
2018-12-04T15:54:49.826Z,989.093
2018-12-04T15:56:50.024Z,989.121
2018-12-04T15:58:50.244Z,989.134
2018-12-04T16:00:50.218Z,989.182
2018-12-04T16:02:50.251Z,989.219
2018-12-04T16:04:49.683Z,989.219
2018-12-04T16:06:49.766Z,989.277
2018-12-04T16:08:49.770Z,989.291
2018-12-04T16:10:49.884Z,989.303
2018-12-04T16:12:49.948Z,989.352
2018-12-04T16:14:49.885Z,989.421
2018-12-04T16:16:50.040Z,989.460
2018-12-04T16:18:50.023Z,989.540
2018-12-04T16:20:49.981Z,989.604
2018-12-04T16:22:49.957Z,989.623
2018-12-04T16:24:49.893Z,989.660
2018-12-04T16:26:50.077Z,989.710
2018-12-04T16:28:50.011Z,989.732
2018-12-04T16:30:50.013Z,989.767
2018-12-04T16:32:50.086Z,989.770
2018-12-04T16:34:50.346Z,989.780
2018-12-04T16:36:49.637Z,989.789
2018-12-04T16:38:49.699Z,989.777
2018-12-04T16:40:49.705Z,989.789
2018-12-04T16:42:49.697Z,989.789
2018-12-04T16:44:49.781Z,989.827
2018-12-04T16:46:50.023Z,989.848
2018-12-04T16:48:50.163Z,989.883
2018-12-04T16:50:50.127Z,989.939
2018-12-04T16:52:50.104Z,989.967
2018-12-04T16:54:50.090Z,990.008
2018-12-04T16:56:50.204Z,990.025
2018-12-04T16:58:50.226Z,990.085
2018-12-04T17:00:50.260Z,990.105
2018-12-04T17:02:50.265Z,990.179
2018-12-04T17:04:49.667Z,990.192
2018-12-04T17:06:49.878Z,990.200
2018-12-04T17:08:49.874Z,990.214
2018-12-04T17:10:49.821Z,990.251
2018-12-04T17:12:49.809Z,990.285
2018-12-04T17:14:49.789Z,990.315
2018-12-04T17:16:50.089Z,990.335
2018-12-04T17:18:50.042Z,990.373
2018-12-04T17:20:50.393Z,990.399
2018-12-04T17:22:50.419Z,990.401
2018-12-04T17:24:50.333Z,990.476
2018-12-04T17:26:49.683Z,990.538
2018-12-04T17:28:49.616Z,990.585
2018-12-04T17:30:49.731Z,990.614
2018-12-04T17:32:49.913Z,990.629
2018-12-04T17:34:50.331Z,990.627
2018-12-04T17:36:50.495Z,990.636
2018-12-04T17:38:50.453Z,990.624
2018-12-04T17:40:50.500Z,990.638
2018-12-04T17:42:50.509Z,990.664
2018-12-04T17:44:50.479Z,990.700
2018-12-04T17:46:49.732Z,990.700
2018-12-04T17:48:49.688Z,990.700
2018-12-04T17:50:49.746Z,990.740
2018-12-04T17:52:49.833Z,990.757
2018-12-04T17:54:49.868Z,990.756
2018-12-04T17:56:50.194Z,990.754
2018-12-04T17:58:50.231Z,990.749
2018-12-04T18:00:50.199Z,990.759
2018-12-04T18:02:50.289Z,990.794
2018-12-04T18:04:50.574Z,990.831
2018-12-04T18:06:49.856Z,990.857
2018-12-04T18:08:49.956Z,990.920
2018-12-04T18:10:49.962Z,990.932
2018-12-04T18:12:49.912Z,990.963
2018-12-04T18:14:49.943Z,990.969
2018-12-04T18:16:50.164Z,991.005
2018-12-04T18:18:50.137Z,991.028
2018-12-04T18:20:50.143Z,991.059
2018-12-04T18:22:50.099Z,991.110
2018-12-04T18:24:50.125Z,991.175
2018-12-04T18:26:50.365Z,991.218
2018-12-04T18:28:50.359Z,991.290
2018-12-04T18:30:50.351Z,991.334
2018-12-04T18:32:50.519Z,991.334
2018-12-04T18:34:50.065Z,991.409
2018-12-04T18:36:50.175Z,991.432
2018-12-04T18:38:50.146Z,991.489
2018-12-04T18:40:50.171Z,991.518
2018-12-04T18:42:50.176Z,991.523
2018-12-04T18:44:50.168Z,991.504
2018-12-04T18:46:50.489Z,991.519
2018-12-04T18:48:50.438Z,991.527
2018-12-04T18:50:50.470Z,991.505
2018-12-04T18:52:50.413Z,991.501
2018-12-04T18:54:50.373Z,991.456
2018-12-04T18:56:50.544Z,991.446
2018-12-04T18:58:50.513Z,991.454
2018-12-04T19:00:50.651Z,991.453
2018-12-04T19:02:49.701Z,991.485
2018-12-04T19:04:49.940Z,991.523
2018-12-04T19:06:50.056Z,991.526
2018-12-04T19:08:50.052Z,991.502
2018-12-04T19:10:50.125Z,991.507
2018-12-04T19:12:50.123Z,991.507
2018-12-04T19:14:50.132Z,991.535
2018-12-04T19:16:50.258Z,991.534
2018-12-04T19:18:50.241Z,991.528
2018-12-04T19:20:50.309Z,991.554
2018-12-04T19:22:50.394Z,991.593
2018-12-04T19:24:50.432Z,991.604
2018-12-04T19:26:49.686Z,991.618
2018-12-04T19:28:49.635Z,991.688
2018-12-04T19:30:49.743Z,991.707
2018-12-04T19:32:49.704Z,991.739
2018-12-04T19:34:50.203Z,991.755
2018-12-04T19:36:50.372Z,991.789
2018-12-04T19:38:50.354Z,991.806
2018-12-04T19:40:50.422Z,991.837
2018-12-04T19:42:50.308Z,991.844
2018-12-04T19:44:50.314Z,991.868
2018-12-04T19:46:50.404Z,991.902
2018-12-04T19:48:50.315Z,991.917
2018-12-04T19:50:50.315Z,991.934
2018-12-04T19:52:50.169Z,991.955
2018-12-04T19:54:50.004Z,991.987
2018-12-04T19:56:49.969Z,991.994
2018-12-04T19:58:49.807Z,991.979
2018-12-04T20:00:49.624Z,991.962
2018-12-04T20:02:49.615Z,991.993
2018-12-04T20:04:49.709Z,992.002
2018-12-04T20:06:49.879Z,992.054
2018-12-04T20:08:52.447Z,992.088
2018-12-04T20:10:50.249Z,992.156
2018-12-04T20:12:50.077Z,992.217
2018-12-04T20:14:49.873Z,992.253
2018-12-04T20:16:50.040Z,992.310
2018-12-04T20:18:49.887Z,992.360
2018-12-04T20:20:49.779Z,992.402
2018-12-04T20:22:50.584Z,992.436
2018-12-04T20:24:50.381Z,992.497
2018-12-04T20:26:50.453Z,992.522
2018-12-04T20:28:50.328Z,992.543
2018-12-04T20:30:50.154Z,992.546
2018-12-04T20:32:50.036Z,992.570
2018-12-04T20:34:50.037Z,992.580
2018-12-04T20:36:50.160Z,992.607
2018-12-04T20:38:49.935Z,992.634
2018-12-04T20:40:49.787Z,992.663
2018-12-04T20:42:50.558Z,992.676
2018-12-04T20:44:50.442Z,992.712
2018-12-04T20:46:50.547Z,992.760
2018-12-04T20:48:50.337Z,992.766
2018-12-04T20:50:50.237Z,992.756
2018-12-04T20:52:50.091Z,992.756
2018-12-04T20:54:49.911Z,992.760
2018-12-04T20:56:50.085Z,992.772
2018-12-04T20:58:49.889Z,992.785
2018-12-04T21:00:49.682Z,992.795
2018-12-04T21:02:50.520Z,992.789
2018-12-04T21:04:49.875Z,992.791
2018-12-04T21:06:50.057Z,992.795
2018-12-04T21:08:49.887Z,992.833
2018-12-04T21:10:49.792Z,992.859
2018-12-04T21:12:49.691Z,992.915
2018-12-04T21:14:52.197Z,992.939
2018-12-04T21:16:50.341Z,992.975
2018-12-04T21:18:50.158Z,992.975
2018-12-04T21:20:49.998Z,993.035
2018-12-04T21:22:49.881Z,993.059
2018-12-04T21:24:49.640Z,993.049
2018-12-04T21:26:49.726Z,993.060
2018-12-04T21:28:50.590Z,993.100
2018-12-04T21:30:50.454Z,993.136
2018-12-04T21:32:50.219Z,993.169
2018-12-04T21:34:50.545Z,993.179
2018-12-04T21:36:50.606Z,993.241
2018-12-04T21:38:50.415Z,993.246
2018-12-04T21:40:50.248Z,993.277
2018-12-04T21:42:50.103Z,993.312
2018-12-04T21:44:49.861Z,993.346
2018-12-04T21:46:50.123Z,993.355
2018-12-04T21:48:49.939Z,993.399
2018-12-04T21:50:49.812Z,993.435
2018-12-04T21:52:49.616Z,993.454
2018-12-04T21:54:50.531Z,993.519
2018-12-04T21:56:50.443Z,993.540
2018-12-04T21:58:50.358Z,993.579
2018-12-04T22:00:50.132Z,993.613
2018-12-04T22:02:49.975Z,993.649
2018-12-04T22:04:50.254Z,993.661
2018-12-04T22:06:50.352Z,993.672
2018-12-04T22:08:50.174Z,993.728
2018-12-04T22:10:50.003Z,993.781
2018-12-04T22:12:49.815Z,993.799
2018-12-04T22:14:49.747Z,993.822
2018-12-04T22:16:49.754Z,993.841
2018-12-04T22:18:50.619Z,993.860
2018-12-04T22:20:50.458Z,993.892
2018-12-04T22:22:50.304Z,993.891
2018-12-04T22:24:50.112Z,993.861
2018-12-04T22:26:50.155Z,993.854
2018-12-04T22:28:49.961Z,993.884
2018-12-04T22:30:49.731Z,993.890
2018-12-04T22:32:49.684Z,993.912
2018-12-04T22:34:50.030Z,993.945
2018-12-04T22:36:50.042Z,993.945
2018-12-04T22:38:49.841Z,993.998
2018-12-04T22:40:49.691Z,994.026
2018-12-04T22:42:49.687Z,994.033
2018-12-04T22:44:50.474Z,994.033
2018-12-04T22:46:50.575Z,994.023
2018-12-04T22:48:50.394Z,994.018
2018-12-04T22:50:50.236Z,994.018
2018-12-04T22:52:50.099Z,994.024
2018-12-04T22:54:49.953Z,994.024
2018-12-04T22:56:50.061Z,993.963
2018-12-04T22:58:49.907Z,993.930
2018-12-04T23:00:49.722Z,993.872
2018-12-04T23:02:50.573Z,993.848
2018-12-04T23:04:49.884Z,993.841
2018-12-04T23:06:49.980Z,993.856
2018-12-04T23:08:49.757Z,993.854
2018-12-04T23:10:49.654Z,993.857
2018-12-04T23:12:50.425Z,993.841
2018-12-04T23:14:50.289Z,993.838
2018-12-04T23:16:50.462Z,993.846
2018-12-04T23:18:50.301Z,993.846
2018-12-04T23:20:50.433Z,993.862
2018-12-04T23:22:50.293Z,993.855
2018-12-04T23:24:50.048Z,993.840
2018-12-04T23:26:50.054Z,993.783
2018-12-04T23:28:49.809Z,993.778
2018-12-04T23:30:49.619Z,993.777
2018-12-04T23:32:50.373Z,993.777
2018-12-04T23:34:49.620Z,993.788
2018-12-04T23:36:49.637Z,993.763
2018-12-04T23:38:50.510Z,993.726
2018-12-04T23:40:50.300Z,993.675
2018-12-04T23:42:50.223Z,993.663
2018-12-04T23:44:50.097Z,993.632
2018-12-04T23:46:50.082Z,993.591
2018-12-04T23:48:49.914Z,993.575
2018-12-04T23:50:49.725Z,993.559
2018-12-04T23:52:49.617Z,993.523
2018-12-04T23:54:51.591Z,993.528
2018-12-04T23:56:49.703Z,993.512
2018-12-04T23:58:50.585Z,993.527
